Costa Fascinosa — ICPO — position and weather

sailwx.info

Track history (hours):
 
Tides and Currents Weather Stations Pressure Air Temp Water Temp Dewpoint Dewpoint Depression Visibility Wind Speed Wind Dir Waves Ship Positions

Costa Fascinosa

Last reported at 2017-Mar-19 00:20 UTC. Time now 2017-Mar-25 19:41 UTC.
Position S 23°04' W 042°45'.

Length 289 m; draft 8.3 m.

Type: Passenger vessel. MMSI: 247313500.

Date/timePositionNaut miles runAvg speedWind from/ knotsBaromVisibWave heightAir tempDewpointWater temp
2017-Mar-19 00:20S 23°04' W 042°45'1418.0
2017-Mar-18 23:33S 23°03' W 043°01'1312.5
2017-Mar-18 22:33S 22°53' W 043°09'2 0.1
2017-Mar-18 11:17S 22°54' W 043°11'5 5.5
2017-Mar-18 10:26S 22°57' W 043°08'1011.1
2017-Mar-18 09:33S 23°07' W 043°06'17016.4
2017-Mar-17 23:09S 24°03' W 046°02'1017.2
2017-Mar-17 22:33S 24°04' W 046°13'6 6.4
2017-Mar-17 21:33S 23°59' W 046°18'2 0.2
2017-Mar-17 10:10S 23°58' W 046°18'3 5.4
2017-Mar-17 09:33S 24°00' W 046°20'9 8.7
2017-Mar-17 08:33S 24°08' W 046°23'9 9.3
2017-Mar-17 07:33S 24°15' W 046°16'1210.2
2017-Mar-17 06:21S 24°11' W 046°03'8 9.7
2017-Mar-17 05:33S 24°07' W 045°56'10 9.5
2017-Mar-17 04:33S 23°60' W 045°48'10 9.7
2017-Mar-17 03:33S 23°57' W 045°39'1010.1
2017-Mar-17 02:32S 23°53' W 045°28'140 4.9
2017-Mar-15 22:11S 23°02' W 043°07'711.0
2017-Mar-15 21:33S 22°55' W 043°09'2 2.4
2017-Mar-15 20:30S 22°54' W 043°11'0 0.0
2017-Mar-15 19:30S 22°54' W 043°11'0 0.0
2017-Mar-15 18:24S 22°54' W 043°11'0 0.0
2017-Mar-15 17:30S 22°54' W 043°11'0 0.0
2017-Mar-15 16:30S 22°54' W 043°11'0 0.0
2017-Mar-15 15:30S 22°54' W 043°11'0 0.0
2017-Mar-15 14:30S 22°54' W 043°11'0 0.0
2017-Mar-15 13:30S 22°54' W 043°11'0 0.0
2017-Mar-15 12:30S 22°54' W 043°11'0 0.0
2017-Mar-15 11:30S 22°54' W 043°11'0 0.0
2017-Mar-15 10:24S 22°54' W 043°11'5 5.4
2017-Mar-15 09:33S 22°57' W 043°08'1313.1
2017-Mar-15 08:31S 23°10' W 043°12'16017.0
2017-Mar-14 23:06S 24°01' W 045°58'916.9
2017-Mar-14 22:33S 24°03' W 046°08'1111.0
2017-Mar-14 21:33S 23°60' W 046°20'3 0.2
2017-Mar-14 10:24S 23°57' W 046°18'3 3.7
2017-Mar-14 09:33S 24°00' W 046°20'8 7.8
2017-Mar-14 08:33S 24°04' W 046°13'1110.7
2017-Mar-14 07:33S 24°02' W 046°01'27 0.6
2017-Mar-12 10:08S 23°55' W 045°33'1017.2
2017-Mar-12 09:33S 23°59' W 045°42'2117.9
2017-Mar-12 08:22S 24°15' W 045°58'1418.0
2017-Mar-12 07:33S 24°26' W 046°08'1818.0
2017-Mar-12 06:33S 24°40' W 046°21'1918.6
2017-Mar-12 05:33S 24°54' W 046°34'167 9.2
2017-Mar-11 11:21S 27°04' W 048°31'17416.2
2017-Mar-11 00:33S 24°40' W 046°41'1817.9
2017-Mar-10 23:33S 24°25' W 046°31'1817.8
2017-Mar-10 22:33S 24°08' W 046°24'12 1.0
2017-Mar-10 10:29S 23°57' W 046°18'5 5.7
2017-Mar-10 09:33S 24°02' W 046°21'8 7.9
2017-Mar-10 08:33S 24°09' W 046°25'1010.4
2017-Mar-10 07:33S 24°11' W 046°14'1111.2
2017-Mar-10 06:33S 24°10' W 046°02'1111.2
2017-Mar-10 05:33S 24°03' W 045°52'1111.0
2017-Mar-10 04:32S 23°58' W 045°42'165 8.6
2017-Mar-09 09:22S 23°14' W 042°48'  
Track history (hours):
 
Tides and Currents Weather Stations Pressure Air Temp Water Temp Dewpoint Dewpoint Depression Visibility Wind Speed Wind Dir Waves Ship Positions

Costa Fascinosa

Last reported at 2017-Mar-19 00:20 UTC. Time now 2017-Mar-25 19:41 UTC.
Position S 23°04' W 042°45'.

Length 289 m; draft 8.3 m.

Type: Passenger vessel. MMSI: 247313500.

Date/timePositionNaut miles runAvg speedWind from/ knotsBaromVisibWave heightAir tempDewpointWater temp
2017-Mar-19 00:20S 23°04' W 042°45'1418.0
2017-Mar-18 23:33S 23°03' W 043°01'1312.5
2017-Mar-18 22:33S 22°53' W 043°09'2 0.1
2017-Mar-18 11:17S 22°54' W 043°11'5 5.5
2017-Mar-18 10:26S 22°57' W 043°08'1011.1
2017-Mar-18 09:33S 23°07' W 043°06'17016.4
2017-Mar-17 23:09S 24°03' W 046°02'1017.2
2017-Mar-17 22:33S 24°04' W 046°13'6 6.4
2017-Mar-17 21:33S 23°59' W 046°18'2 0.2
2017-Mar-17 10:10S 23°58' W 046°18'3 5.4
2017-Mar-17 09:33S 24°00' W 046°20'9 8.7
2017-Mar-17 08:33S 24°08' W 046°23'9 9.3
2017-Mar-17 07:33S 24°15' W 046°16'1210.2
2017-Mar-17 06:21S 24°11' W 046°03'8 9.7
2017-Mar-17 05:33S 24°07' W 045°56'10 9.5
2017-Mar-17 04:33S 23°60' W 045°48'10 9.7
2017-Mar-17 03:33S 23°57' W 045°39'1010.1
2017-Mar-17 02:32S 23°53' W 045°28'140 4.9
2017-Mar-15 22:11S 23°02' W 043°07'711.0
2017-Mar-15 21:33S 22°55' W 043°09'2 2.4
2017-Mar-15 20:30S 22°54' W 043°11'0 0.0
2017-Mar-15 19:30S 22°54' W 043°11'0 0.0
2017-Mar-15 18:24S 22°54' W 043°11'0 0.0
2017-Mar-15 17:30S 22°54' W 043°11'0 0.0
2017-Mar-15 16:30S 22°54' W 043°11'0 0.0
2017-Mar-15 15:30S 22°54' W 043°11'0 0.0
2017-Mar-15 14:30S 22°54' W 043°11'0 0.0
2017-Mar-15 13:30S 22°54' W 043°11'0 0.0
2017-Mar-15 12:30S 22°54' W 043°11'0 0.0
2017-Mar-15 11:30S 22°54' W 043°11'0 0.0
2017-Mar-15 10:24S 22°54' W 043°11'5 5.4
2017-Mar-15 09:33S 22°57' W 043°08'1313.1
2017-Mar-15 08:31S 23°10' W 043°12'16017.0
2017-Mar-14 23:06S 24°01' W 045°58'916.9
2017-Mar-14 22:33S 24°03' W 046°08'1111.0
2017-Mar-14 21:33S 23°60' W 046°20'3 0.2
2017-Mar-14 10:24S 23°57' W 046°18'3 3.7
2017-Mar-14 09:33S 24°00' W 046°20'8 7.8
2017-Mar-14 08:33S 24°04' W 046°13'1110.7
2017-Mar-14 07:33S 24°02' W 046°01'27 0.6
2017-Mar-12 10:08S 23°55' W 045°33'1017.2
2017-Mar-12 09:33S 23°59' W 045°42'2117.9
2017-Mar-12 08:22S 24°15' W 045°58'1418.0
2017-Mar-12 07:33S 24°26' W 046°08'1818.0
2017-Mar-12 06:33S 24°40' W 046°21'1918.6
2017-Mar-12 05:33S 24°54' W 046°34'167 9.2
2017-Mar-11 11:21S 27°04' W 048°31'17416.2
2017-Mar-11 00:33S 24°40' W 046°41'1817.9
2017-Mar-10 23:33S 24°25' W 046°31'1817.8
2017-Mar-10 22:33S 24°08' W 046°24'12 1.0
2017-Mar-10 10:29S 23°57' W 046°18'5 5.7
2017-Mar-10 09:33S 24°02' W 046°21'8 7.9
2017-Mar-10 08:33S 24°09' W 046°25'1010.4
2017-Mar-10 07:33S 24°11' W 046°14'1111.2
2017-Mar-10 06:33S 24°10' W 046°02'1111.2
2017-Mar-10 05:33S 24°03' W 045°52'1111.0
2017-Mar-10 04:32S 23°58' W 045°42'165 8.6
2017-Mar-09 09:22S 23°14' W 042°48'  

Dump ship's entire track history